Time;durP1;ratioP1;P1;durP2;ratioP2;P2;SDS_P1;SDS_P2;PMS_P1;PMS_P2;Temp;Humidity;BMP_temperature;BMP_pressure;BME280_temperature;BME280_humidity;BME280_pressure;Samples;Min_cycle;Max_cycle;Signal;HPM_P1;HPM_P2
2022/03/23 00:00:28;;;;;;;3.02;2.80;;;;;;;;;;1805962;77;26277;-43
2022/03/23 00:02:55;;;;;;;3.02;2.70;;;;;;;;;;1802730;78;26777;-44
2022/03/23 00:05:25;;;;;;;2.42;2.33;;;;;;;;;;1804900;77;26248;-42
2022/03/23 00:07:52;;;;;;;2.37;2.20;;;;;;;;;;1798837;77;26345;-42
2022/03/23 00:10:20;;;;;;;2.30;2.20;;;;;;;;;;1808703;77;26549;-43
2022/03/23 00:12:48;;;;;;;2.87;2.75;;;;;;;;;;1797052;77;26670;-42
2022/03/23 00:15:15;;;;;;;2.40;2.30;;;;;;;;;;1802014;77;26295;-44
2022/03/23 00:17:42;;;;;;;2.70;2.50;;;;;;;;;;1805634;77;26306;-44
2022/03/23 00:20:11;;;;;;;2.72;2.52;;;;;;;;;;1807130;77;26336;-43
2022/03/23 00:22:39;;;;;;;2.58;2.47;;;;;;;;;;1799524;77;26341;-43
2022/03/23 00:25:08;;;;;;;2.60;2.35;;;;;;;;;;1798451;78;26728;-42
2022/03/23 00:30:18;;;;;;;2.75;2.50;;;;;;;;;;1912444;74;27237;-43
2022/03/23 00:32:45;;;;;;;2.83;2.62;;;;;;;;;;1887523;75;26277;-43
2022/03/23 00:35:13;;;;;;;2.80;2.70;;;;;;;;;;1887853;75;26249;-43
2022/03/23 00:37:43;;;;;;;2.60;2.50;;;;;;;;;;1888559;75;26559;-43
2022/03/23 00:40:11;;;;;;;2.60;2.50;;;;;;;;;;1902266;75;27064;-42
2022/03/23 00:42:38;;;;;;;2.55;2.42;;;;;;;;;;1880798;75;26193;-45
2022/03/23 00:45:07;;;;;;;2.70;2.50;;;;;;;;;;1886487;75;26257;-43
2022/03/23 00:47:35;;;;;;;2.60;2.50;;;;;;;;;;1884180;75;26658;-42
2022/03/23 00:50:02;;;;;;;2.65;2.50;;;;;;;;;;1883553;75;26370;-43
2022/03/23 00:52:29;;;;;;;2.50;2.30;;;;;;;;;;1900211;75;26300;-42
2022/03/23 00:54:57;;;;;;;2.60;2.50;;;;;;;;;;1881749;75;26319;-43
2022/03/23 00:57:24;;;;;;;2.90;2.80;;;;;;;;;;1883619;74;26255;-43
2022/03/23 00:59:51;;;;;;;2.50;2.40;;;;;;;;;;1880417;75;26344;-42
2022/03/23 01:02:18;;;;;;;2.60;2.40;;;;;;;;;;1886158;75;26238;-42
2022/03/23 01:04:46;;;;;;;2.70;2.50;;;;;;;;;;1866489;75;26366;-43
2022/03/23 01:07:13;;;;;;;2.55;2.42;;;;;;;;;;1868211;76;26253;-43
2022/03/23 01:09:40;;;;;;;2.87;2.52;;;;;;;;;;1872271;76;26375;-43
2022/03/23 01:12:09;;;;;;;2.50;2.40;;;;;;;;;;1873721;76;26260;-45
2022/03/23 01:14:36;;;;;;;2.77;2.58;;;;;;;;;;1859338;76;26269;-44
2022/03/23 01:17:06;;;;;;;2.90;2.70;;;;;;;;;;1868690;76;26333;-43
2022/03/23 01:19:33;;;;;;;2.67;2.52;;;;;;;;;;1869609;76;26323;-44
2022/03/23 01:22:00;;;;;;;2.60;2.40;;;;;;;;;;1864989;76;26249;-44
2022/03/23 01:24:28;;;;;;;2.83;2.55;;;;;;;;;;1875730;75;26319;-44
2022/03/23 01:26:56;;;;;;;2.55;2.42;;;;;;;;;;1872561;76;26326;-44
2022/03/23 01:29:23;;;;;;;2.60;2.50;;;;;;;;;;1844177;76;26944;-45
2022/03/23 01:31:50;;;;;;;2.45;2.33;;;;;;;;;;1860701;75;26399;-43
2022/03/23 01:34:18;;;;;;;3.52;2.67;;;;;;;;;;1863595;76;26273;-43
2022/03/23 01:36:45;;;;;;;2.50;2.40;;;;;;;;;;1871967;75;26260;-43
2022/03/23 01:39:12;;;;;;;2.60;2.40;;;;;;;;;;1869073;76;26280;-42
2022/03/23 01:41:40;;;;;;;2.40;2.30;;;;;;;;;;1858866;76;26334;-44
2022/03/23 01:44:15;;;;;;;2.30;2.20;;;;;;;;;;1861255;76;26238;-43
2022/03/23 01:47:02;;;;;;;2.60;2.50;;;;;;;;;;1852495;76;26266;-43
2022/03/23 01:49:30;;;;;;;2.50;2.40;;;;;;;;;;1863886;76;26281;-43
2022/03/23 01:51:57;;;;;;;2.35;2.25;;;;;;;;;;1860897;76;26763;-44
2022/03/23 01:54:24;;;;;;;2.75;2.60;;;;;;;;;;1860116;76;26732;-43
2022/03/23 01:56:52;;;;;;;2.65;2.50;;;;;;;;;;1863288;75;26254;-42
2022/03/23 01:59:19;;;;;;;2.30;2.20;;;;;;;;;;1865966;76;26352;-42
2022/03/23 02:01:46;;;;;;;2.33;2.22;;;;;;;;;;1862703;76;26514;-42
2022/03/23 02:04:14;;;;;;;2.52;2.35;;;;;;;;;;1872735;76;26308;-42
2022/03/23 02:06:41;;;;;;;2.30;2.20;;;;;;;;;;1871729;76;26249;-43
2022/03/23 02:09:08;;;;;;;2.60;2.50;;;;;;;;;;1861458;75;26369;-43
2022/03/23 02:11:37;;;;;;;2.45;2.35;;;;;;;;;;1866344;76;26252;-42
2022/03/23 02:14:04;;;;;;;2.67;2.50;;;;;;;;;;1861759;75;26247;-43
2022/03/23 02:16:33;;;;;;;2.55;2.35;;;;;;;;;;1861502;76;26802;-43
2022/03/23 02:19:00;;;;;;;2.40;2.30;;;;;;;;;;1872159;76;26747;-43
2022/03/23 02:21:28;;;;;;;2.50;2.40;;;;;;;;;;1872129;76;26524;-42
2022/03/23 02:23:55;;;;;;;2.33;2.22;;;;;;;;;;1858166;76;26253;-43
2022/03/23 02:26:23;;;;;;;2.62;2.42;;;;;;;;;;1875065;76;26278;-42
2022/03/23 02:28:51;;;;;;;2.35;2.22;;;;;;;;;;1868038;76;26278;-44
2022/03/23 02:31:19;;;;;;;2.30;2.20;;;;;;;;;;1865185;76;26571;-42
2022/03/23 02:33:46;;;;;;;2.37;2.27;;;;;;;;;;1871791;76;26312;-43
2022/03/23 02:36:13;;;;;;;2.45;2.30;;;;;;;;;;1855367;76;26256;-42
2022/03/23 02:38:40;;;;;;;2.40;2.30;;;;;;;;;;1874044;76;26316;-43
2022/03/23 02:41:09;;;;;;;2.60;2.50;;;;;;;;;;1867045;76;26306;-42
2022/03/23 02:43:36;;;;;;;2.50;2.40;;;;;;;;;;1859146;76;26289;-43
2022/03/23 02:46:03;;;;;;;2.30;2.20;;;;;;;;;;1880146;76;26340;-42
2022/03/23 02:48:30;;;;;;;2.40;2.30;;;;;;;;;;1863554;76;26214;-42
2022/03/23 02:50:58;;;;;;;2.40;2.20;;;;;;;;;;1865476;75;26774;-43
2022/03/23 03:01:53;;;;;;;2.20;2.10;;;;;;;;;;1871426;76;26313;-43
2022/03/23 03:04:22;;;;;;;2.55;2.30;;;;;;;;;;1868757;76;26319;-42
2022/03/23 03:06:49;;;;;;;2.40;2.30;;;;;;;;;;1852776;76;26238;-43
2022/03/23 03:09:17;;;;;;;2.58;2.37;;;;;;;;;;1852342;76;26221;-44
2022/03/23 03:11:44;;;;;;;2.10;2.00;;;;;;;;;;1873647;76;26241;-43
2022/03/23 03:14:12;;;;;;;2.33;2.22;;;;;;;;;;1878819;76;26729;-44
2022/03/23 03:16:39;;;;;;;2.37;2.27;;;;;;;;;;1852775;76;26261;-44
2022/03/23 03:19:11;;;;;;;2.30;2.20;;;;;;;;;;1859188;76;26233;-43
2022/03/23 03:21:37;;;;;;;2.70;2.50;;;;;;;;;;1848316;76;26806;-43
2022/03/23 03:24:06;;;;;;;2.35;2.15;;;;;;;;;;1844531;76;26264;-43
2022/03/23 03:26:34;;;;;;;2.60;2.50;;;;;;;;;;1870632;75;26274;-43
2022/03/23 03:29:04;;;;;;;2.75;2.60;;;;;;;;;;1861933;76;26831;-42
2022/03/23 03:31:30;;;;;;;2.65;2.33;;;;;;;;;;1848735;76;26359;-43
2022/03/23 03:33:58;;;;;;;2.15;2.05;;;;;;;;;;1839638;76;26256;-42
2022/03/23 03:36:25;;;;;;;2.27;2.08;;;;;;;;;;1868974;76;26237;-43
2022/03/23 03:38:54;;;;;;;2.08;2.08;;;;;;;;;;1861632;76;26264;-43
2022/03/23 03:41:22;;;;;;;2.40;2.30;;;;;;;;;;1863377;76;26508;-45
2022/03/23 03:43:49;;;;;;;2.30;2.20;;;;;;;;;;1858141;76;26297;-43
2022/03/23 03:46:16;;;;;;;2.30;2.20;;;;;;;;;;1852761;76;26722;-43
2022/03/23 03:48:44;;;;;;;2.20;2.10;;;;;;;;;;1874164;76;26245;-45
2022/03/23 03:51:11;;;;;;;2.45;2.35;;;;;;;;;;1846477;76;26338;-43
2022/03/23 03:53:38;;;;;;;2.37;2.15;;;;;;;;;;1880518;76;26267;-43
2022/03/23 03:56:06;;;;;;;2.35;2.17;;;;;;;;;;1867441;76;26242;-45
2022/03/23 03:58:33;;;;;;;2.10;2.10;;;;;;;;;;1867076;76;26242;-42
2022/03/23 04:01:00;;;;;;;2.33;2.15;;;;;;;;;;1861086;76;26264;-43
2022/03/23 04:03:28;;;;;;;2.40;2.30;;;;;;;;;;1847953;76;26310;-42
2022/03/23 04:05:55;;;;;;;2.30;2.20;;;;;;;;;;1864284;76;26266;-42
2022/03/23 04:08:22;;;;;;;2.47;2.20;;;;;;;;;;1857253;76;26372;-43
2022/03/23 04:10:50;;;;;;;2.30;2.20;;;;;;;;;;1868069;76;26764;-44
2022/03/23 04:13:17;;;;;;;2.50;2.30;;;;;;;;;;1852060;76;26244;-43
2022/03/23 04:15:45;;;;;;;2.42;2.30;;;;;;;;;;1879625;76;26214;-44
2022/03/23 04:18:12;;;;;;;2.40;2.30;;;;;;;;;;1853690;76;26273;-42
2022/03/23 04:20:39;;;;;;;2.00;2.00;;;;;;;;;;1879332;76;26265;-43
2022/03/23 04:23:07;;;;;;;2.17;2.08;;;;;;;;;;1866343;76;26293;-43
2022/03/23 04:25:34;;;;;;;2.25;2.15;;;;;;;;;;1846275;76;26287;-43
2022/03/23 04:28:01;;;;;;;2.15;2.05;;;;;;;;;;1853111;76;26827;-43
2022/03/23 04:30:34;;;;;;;2.33;2.22;;;;;;;;;;1870926;76;26316;-42
2022/03/23 04:32:59;;;;;;;2.45;2.12;;;;;;;;;;1855259;76;26282;-44
2022/03/23 04:35:28;;;;;;;2.15;2.05;;;;;;;;;;1841067;76;26292;-40
2022/03/23 04:37:55;;;;;;;2.55;2.20;;;;;;;;;;1864544;76;26661;-43
2022/03/23 04:40:23;;;;;;;1.95;1.90;;;;;;;;;;1878181;76;26327;-42
2022/03/23 04:42:50;;;;;;;2.25;2.15;;;;;;;;;;1873955;76;26250;-44
2022/03/23 04:45:18;;;;;;;2.30;2.20;;;;;;;;;;1858990;76;25648;-44
2022/03/23 04:47:45;;;;;;;2.40;2.22;;;;;;;;;;1855122;76;26235;-43
2022/03/23 04:50:13;;;;;;;2.62;2.10;;;;;;;;;;1855765;76;26311;-43
2022/03/23 04:52:42;;;;;;;2.45;2.30;;;;;;;;;;1871744;76;26202;-42
2022/03/23 04:55:10;;;;;;;2.20;2.10;;;;;;;;;;1875085;76;26271;-44
2022/03/23 04:57:37;;;;;;;2.42;2.27;;;;;;;;;;1868351;76;26236;-43
2022/03/23 05:00:10;;;;;;;2.30;2.20;;;;;;;;;;1852253;76;26732;-42
2022/03/23 05:02:35;;;;;;;2.50;2.30;;;;;;;;;;1865630;75;26300;-43
2022/03/23 05:05:03;;;;;;;2.20;2.10;;;;;;;;;;1875826;76;26327;-43
2022/03/23 05:07:31;;;;;;;2.20;1.80;;;;;;;;;;1878002;76;26273;-43
2022/03/23 05:09:58;;;;;;;2.27;2.10;;;;;;;;;;1851894;76;26283;-42
2022/03/23 05:12:25;;;;;;;2.22;2.12;;;;;;;;;;1845922;76;26284;-43
2022/03/23 05:14:53;;;;;;;3.20;2.10;;;;;;;;;;1865849;76;26272;-43
2022/03/23 05:17:21;;;;;;;2.15;2.00;;;;;;;;;;1870902;75;26382;-43
2022/03/23 05:19:48;;;;;;;3.35;2.10;;;;;;;;;;1865360;76;26644;-42
2022/03/23 05:22:16;;;;;;;1.98;1.80;;;;;;;;;;1864452;76;26278;-43
2022/03/23 05:24:43;;;;;;;2.55;2.12;;;;;;;;;;1870746;76;26268;-43
2022/03/23 05:27:10;;;;;;;4.00;2.00;;;;;;;;;;1876225;76;26343;-43
2022/03/23 05:29:38;;;;;;;4.70;2.05;;;;;;;;;;1871292;76;26359;-43
2022/03/23 05:32:06;;;;;;;2.45;2.20;;;;;;;;;;1856252;76;26405;-45
2022/03/23 05:34:34;;;;;;;2.60;2.08;;;;;;;;;;1878136;76;25581;-43
2022/03/23 05:39:46;;;;;;;7.03;2.02;;;;;;;;;;1903987;73;27114;-43
2022/03/23 05:42:14;;;;;;;3.40;2.25;;;;;;;;;;1881429;75;26347;-44
2022/03/23 05:44:41;;;;;;;5.85;2.10;;;;;;;;;;1889629;75;26724;-42
2022/03/23 05:47:09;;;;;;;3.85;2.50;;;;;;;;;;1874585;75;26296;-45
2022/03/23 05:49:36;;;;;;;4.17;2.10;;;;;;;;;;1882014;74;26314;-43
2022/03/23 05:52:04;;;;;;;2.90;2.00;;;;;;;;;;1870129;75;26708;-44
2022/03/23 05:54:31;;;;;;;6.85;2.12;;;;;;;;;;1887647;75;26244;-44
2022/03/23 05:57:02;;;;;;;8.65;2.52;;;;;;;;;;1881740;75;26906;-42
2022/03/23 05:59:30;;;;;;;4.85;2.17;;;;;;;;;;1870807;75;26269;-45
2022/03/23 06:02:01;;;;;;;10.78;2.45;;;;;;;;;;1886172;75;26564;-43
2022/03/23 06:04:28;;;;;;;9.90;2.80;;;;;;;;;;1857153;75;26311;-43
2022/03/23 06:06:55;;;;;;;10.40;2.50;;;;;;;;;;1857714;76;26252;-43
2022/03/23 06:09:23;;;;;;;11.85;2.80;;;;;;;;;;1853937;76;26252;-42
2022/03/23 06:11:51;;;;;;;7.62;2.60;;;;;;;;;;1866899;76;26284;-43
2022/03/23 06:14:18;;;;;;;6.50;2.20;;;;;;;;;;1859076;76;26785;-42
2022/03/23 06:16:45;;;;;;;4.42;2.10;;;;;;;;;;1865342;76;26314;-43
2022/03/23 06:19:13;;;;;;;5.17;2.12;;;;;;;;;;1864054;76;26265;-43
2022/03/23 06:21:41;;;;;;;10.48;2.40;;;;;;;;;;1856788;76;26268;-43
2022/03/23 06:24:08;;;;;;;4.72;2.20;;;;;;;;;;1857037;76;26245;-42
2022/03/23 06:26:36;;;;;;;12.55;2.60;;;;;;;;;;1859743;76;26342;-43
2022/03/23 06:29:03;;;;;;;3.95;2.17;;;;;;;;;;1861703;76;26255;-45
2022/03/23 06:31:31;;;;;;;9.75;2.50;;;;;;;;;;1864062;76;26280;-43
2022/03/23 06:33:59;;;;;;;4.58;1.98;;;;;;;;;;1863534;76;27850;-46
2022/03/23 06:36:26;;;;;;;6.55;2.60;;;;;;;;;;1858751;76;26857;-43
2022/03/23 06:38:54;;;;;;;6.40;1.95;;;;;;;;;;1854269;76;26939;-45
2022/03/23 06:41:21;;;;;;;6.72;2.00;;;;;;;;;;1852071;76;27268;-46
2022/03/23 06:43:48;;;;;;;5.55;2.25;;;;;;;;;;1860691;76;27269;-48
2022/03/23 06:46:15;;;;;;;6.78;2.12;;;;;;;;;;1852176;76;26248;-43
2022/03/23 06:48:43;;;;;;;9.45;2.27;;;;;;;;;;1856630;76;26304;-43
2022/03/23 06:51:10;;;;;;;6.00;2.40;;;;;;;;;;1851237;76;26197;-42
2022/03/23 06:53:37;;;;;;;1.82;1.72;;;;;;;;;;1853404;76;26309;-46
2022/03/23 06:56:04;;;;;;;4.67;1.87;;;;;;;;;;1843886;76;26256;-47
2022/03/23 06:58:32;;;;;;;4.87;1.95;;;;;;;;;;1851846;76;26287;-52
2022/03/23 07:01:00;;;;;;;2.52;1.85;;;;;;;;;;1849676;76;26814;-49
2022/03/23 07:03:28;;;;;;;4.15;2.05;;;;;;;;;;1844010;76;26397;-51
2022/03/23 07:05:55;;;;;;;3.60;1.80;;;;;;;;;;1852706;76;26317;-52
2022/03/23 07:11:08;;;;;;;5.87;2.10;;;;;;;;;;1847223;76;26399;-51
2022/03/23 07:13:35;;;;;;;4.60;1.52;;;;;;;;;;1852793;76;26696;-52
2022/03/23 07:16:03;;;;;;;6.37;2.30;;;;;;;;;;1845417;76;26348;-49
2022/03/23 07:18:30;;;;;;;4.47;1.92;;;;;;;;;;1848409;76;26319;-57
2022/03/23 07:20:57;;;;;;;4.12;2.10;;;;;;;;;;1830731;76;26894;-56
2022/03/23 07:23:24;;;;;;;2.65;1.77;;;;;;;;;;1848556;76;26748;-55
2022/03/23 07:25:52;;;;;;;3.50;1.80;;;;;;;;;;1869359;76;26782;-54
2022/03/23 07:28:19;;;;;;;1.80;1.70;;;;;;;;;;1837495;76;26264;-46
2022/03/23 07:30:47;;;;;;;3.27;1.80;;;;;;;;;;1852752;76;26319;-48
2022/03/23 07:33:14;;;;;;;2.15;1.80;;;;;;;;;;1855824;76;26289;-49
2022/03/23 07:35:41;;;;;;;1.80;1.67;;;;;;;;;;1838266;76;27257;-49
2022/03/23 07:38:09;;;;;;;2.02;1.65;;;;;;;;;;1843661;76;26540;-49
2022/03/23 07:40:36;;;;;;;2.45;1.70;;;;;;;;;;1840472;76;26331;-48
2022/03/23 07:43:04;;;;;;;1.60;1.50;;;;;;;;;;1845842;76;26824;-50
2022/03/23 07:45:31;;;;;;;2.70;1.72;;;;;;;;;;1849370;76;26257;-46
2022/03/23 07:47:59;;;;;;;2.98;1.50;;;;;;;;;;1855100;76;26271;-47
2022/03/23 07:50:27;;;;;;;3.12;1.62;;;;;;;;;;1857223;76;26285;-47
2022/03/23 07:52:55;;;;;;;1.70;1.60;;;;;;;;;;1866940;76;26339;-47
2022/03/23 07:55:23;;;;;;;2.00;1.65;;;;;;;;;;1861048;76;26689;-47
2022/03/23 07:57:51;;;;;;;2.25;1.40;;;;;;;;;;1856537;76;26289;-48
2022/03/23 08:00:18;;;;;;;2.02;1.80;;;;;;;;;;1837782;76;28814;-47
2022/03/23 08:02:46;;;;;;;2.15;1.80;;;;;;;;;;1845429;76;26272;-46
2022/03/23 08:05:14;;;;;;;2.60;1.70;;;;;;;;;;1847916;76;26346;-47
2022/03/23 08:07:41;;;;;;;4.20;1.60;;;;;;;;;;1858271;76;26345;-46
2022/03/23 08:10:09;;;;;;;3.02;1.50;;;;;;;;;;1857731;76;26283;-46
2022/03/23 08:12:36;;;;;;;3.05;1.60;;;;;;;;;;1847279;76;26801;-44
2022/03/23 08:15:04;;;;;;;3.17;1.70;;;;;;;;;;1848364;76;26763;-44
2022/03/23 08:17:31;;;;;;;2.05;1.52;;;;;;;;;;1851119;76;26267;-44
2022/03/23 08:22:44;;;;;;;2.58;1.60;;;;;;;;;;1841615;76;26367;-46
2022/03/23 08:25:11;;;;;;;1.50;1.40;;;;;;;;;;1847345;76;26263;-48
2022/03/23 08:27:39;;;;;;;1.47;1.40;;;;;;;;;;1860099;76;26336;-47
2022/03/23 08:30:07;;;;;;;1.85;1.60;;;;;;;;;;1848095;76;26913;-51
2022/03/23 08:32:35;;;;;;;2.77;1.50;;;;;;;;;;1847966;76;27416;-49
2022/03/23 08:35:02;;;;;;;3.12;1.40;;;;;;;;;;1850616;76;26846;-49
2022/03/23 08:37:29;;;;;;;1.70;1.60;;;;;;;;;;1851489;76;26768;-51
2022/03/23 08:39:57;;;;;;;1.60;1.50;;;;;;;;;;1859119;75;26276;-47
2022/03/23 08:42:24;;;;;;;2.65;1.40;;;;;;;;;;1855294;76;26806;-48
2022/03/23 08:44:52;;;;;;;3.92;1.70;;;;;;;;;;1833931;76;26330;-47
2022/03/23 08:47:19;;;;;;;1.47;1.40;;;;;;;;;;1853680;76;26323;-45
2022/03/23 08:49:46;;;;;;;2.85;1.45;;;;;;;;;;1860944;76;26265;-48
2022/03/23 08:52:13;;;;;;;2.05;1.70;;;;;;;;;;1845718;76;26268;-48
2022/03/23 08:54:41;;;;;;;1.30;1.30;;;;;;;;;;1843795;76;26259;-46
2022/03/23 08:57:08;;;;;;;1.30;1.30;;;;;;;;;;1859802;76;26358;-47
2022/03/23 08:59:36;;;;;;;1.60;1.37;;;;;;;;;;1843515;76;26338;-46
2022/03/23 09:02:03;;;;;;;4.78;1.70;;;;;;;;;;1850480;76;26396;-45
2022/03/23 09:04:31;;;;;;;1.80;1.70;;;;;;;;;;1854309;76;27423;-45
2022/03/23 09:06:58;;;;;;;1.70;1.60;;;;;;;;;;1848533;76;26276;-52
2022/03/23 09:09:26;;;;;;;1.98;1.52;;;;;;;;;;1877576;76;26330;-46
2022/03/23 09:11:53;;;;;;;1.98;1.87;;;;;;;;;;1849388;76;26322;-46
2022/03/23 09:14:21;;;;;;;2.17;1.72;;;;;;;;;;1852966;76;26259;-50
2022/03/23 09:16:49;;;;;;;2.20;1.37;;;;;;;;;;1853631;76;26556;-45
2022/03/23 09:19:20;;;;;;;1.30;1.30;;;;;;;;;;1851326;76;26261;-46
2022/03/23 09:21:45;;;;;;;2.90;1.55;;;;;;;;;;1847987;77;26208;-47
2022/03/23 09:24:13;;;;;;;1.30;1.25;;;;;;;;;;1850147;76;26329;-48
2022/03/23 09:26:40;;;;;;;1.65;1.40;;;;;;;;;;1857558;76;26249;-45
2022/03/23 09:29:07;;;;;;;1.50;1.40;;;;;;;;;;1862152;76;26563;-47
2022/03/23 09:31:35;;;;;;;1.50;1.40;;;;;;;;;;1848032;76;26925;-48
2022/03/23 09:34:02;;;;;;;1.47;1.40;;;;;;;;;;1848068;76;26247;-47
2022/03/23 09:39:15;;;;;;;1.30;1.30;;;;;;;;;;1857137;76;26334;-47
2022/03/23 09:41:45;;;;;;;1.70;1.60;;;;;;;;;;1863127;76;26389;-49
2022/03/23 09:44:12;;;;;;;2.37;1.40;;;;;;;;;;1856902;76;26712;-48
2022/03/23 09:46:40;;;;;;;2.55;1.42;;;;;;;;;;1863225;76;26265;-46
2022/03/23 09:49:07;;;;;;;3.40;1.40;;;;;;;;;;1860547;76;26663;-45
2022/03/23 09:51:36;;;;;;;2.37;1.55;;;;;;;;;;1848076;76;28179;-43
2022/03/23 09:54:04;;;;;;;2.05;1.50;;;;;;;;;;1861107;76;26275;-46
2022/03/23 09:56:31;;;;;;;1.50;1.40;;;;;;;;;;1842041;76;28272;-45
2022/03/23 09:59:00;;;;;;;1.52;1.50;;;;;;;;;;1847511;76;28298;-47
2022/03/23 10:01:31;;;;;;;2.12;1.40;;;;;;;;;;1857176;76;26276;-46
2022/03/23 10:04:09;;;;;;;1.55;1.45;;;;;;;;;;1850468;76;26747;-47
2022/03/23 10:06:41;;;;;;;1.22;1.22;;;;;;;;;;1860450;76;26755;-46
2022/03/23 10:09:28;;;;;;;1.50;1.40;;;;;;;;;;1874234;76;26542;-54
2022/03/23 10:12:14;;;;;;;2.35;1.47;;;;;;;;;;1878145;76;26795;-49
2022/03/23 10:14:59;;;;;;;3.58;1.40;;;;;;;;;;1858380;76;26322;-48
2022/03/23 10:17:40;;;;;;;1.50;1.40;;;;;;;;;;1861046;76;26359;-49
2022/03/23 10:20:07;;;;;;;1.52;1.40;;;;;;;;;;1862565;76;26341;-45
2022/03/23 10:22:35;;;;;;;1.30;1.30;;;;;;;;;;1858819;76;28231;-48
2022/03/23 10:25:09;;;;;;;1.50;1.40;;;;;;;;;;1868886;76;26318;-49
2022/03/23 10:27:38;;;;;;;1.22;1.20;;;;;;;;;;1862338;76;26853;-47
2022/03/23 10:30:06;;;;;;;1.60;1.50;;;;;;;;;;1867248;76;26798;-45
2022/03/23 10:32:37;;;;;;;1.20;1.20;;;;;;;;;;1867297;76;26628;-48
2022/03/23 10:35:05;;;;;;;1.32;1.30;;;;;;;;;;1862123;76;26383;-47
2022/03/23 10:37:33;;;;;;;1.45;1.35;;;;;;;;;;1858906;76;26330;-47
2022/03/23 10:40:02;;;;;;;4.37;1.37;;;;;;;;;;1862102;76;26574;-45
2022/03/23 10:42:31;;;;;;;1.57;1.47;;;;;;;;;;1830094;76;26330;-46
2022/03/23 10:45:07;;;;;;;3.33;1.50;;;;;;;;;;1845138;76;26322;-47
2022/03/23 10:47:35;;;;;;;1.40;1.30;;;;;;;;;;1845372;76;26680;-50
2022/03/23 10:50:10;;;;;;;1.85;1.30;;;;;;;;;;1848496;76;26376;-50
2022/03/23 10:52:39;;;;;;;1.30;1.30;;;;;;;;;;1848096;76;26921;-48
2022/03/23 10:55:07;;;;;;;1.40;1.40;;;;;;;;;;1825954;76;29654;-49
2022/03/23 10:57:54;;;;;;;1.77;1.47;;;;;;;;;;1829093;76;28209;-47
2022/03/23 11:00:35;;;;;;;1.50;1.40;;;;;;;;;;1868055;76;26348;-49
2022/03/23 11:03:04;;;;;;;3.12;1.30;;;;;;;;;;1847235;76;26607;-48
2022/03/23 11:05:39;;;;;;;1.65;1.40;;;;;;;;;;1855151;76;26280;-47
2022/03/23 11:08:08;;;;;;;1.70;1.40;;;;;;;;;;1848250;76;26442;-46
2022/03/23 11:16:14;;;;;;;2.80;1.30;;;;;;;;;;1839275;76;26369;-51
2022/03/23 11:18:42;;;;;;;1.50;1.40;;;;;;;;;;1858201;76;26331;-57
2022/03/23 11:21:09;;;;;;;9.28;1.60;;;;;;;;;;1851282;76;26245;-43
2022/03/23 11:23:38;;;;;;;7.25;1.50;;;;;;;;;;1835633;76;26340;-43
2022/03/23 11:26:10;;;;;;;3.27;1.70;;;;;;;;;;1848151;76;26293;-42
2022/03/23 11:28:42;;;;;;;7.25;1.80;;;;;;;;;;1842294;76;26796;-43
2022/03/23 11:31:10;;;;;;;6.72;1.90;;;;;;;;;;1837885;76;27313;-43
2022/03/23 11:33:38;;;;;;;8.33;1.82;;;;;;;;;;1840303;76;26347;-42
2022/03/23 11:36:11;;;;;;;15.28;2.65;;;;;;;;;;1851493;76;26353;-43
2022/03/23 11:38:37;;;;;;;7.35;1.75;;;;;;;;;;1844420;76;26745;-45
2022/03/23 11:41:05;;;;;;;29.00;2.40;;;;;;;;;;1823647;76;26780;-43
2022/03/23 11:43:39;;;;;;;15.35;2.02;;;;;;;;;;1849020;76;26280;-44
2022/03/23 11:46:08;;;;;;;15.60;2.55;;;;;;;;;;1851670;76;29592;-43
2022/03/23 11:48:52;;;;;;;12.53;2.10;;;;;;;;;;1869226;76;26295;-42
2022/03/23 11:51:30;;;;;;;24.05;2.27;;;;;;;;;;1848931;76;26337;-41
2022/03/23 11:54:05;;;;;;;15.95;2.12;;;;;;;;;;1870442;76;26257;-43
2022/03/23 11:56:34;;;;;;;13.62;2.30;;;;;;;;;;1871206;76;26319;-48
2022/03/23 11:59:21;;;;;;;14.20;2.17;;;;;;;;;;1873909;76;26299;-49
2022/03/23 12:01:50;;;;;;;10.05;1.80;;;;;;;;;;1837592;76;26275;-52
2022/03/23 12:04:19;;;;;;;4.47;1.87;;;;;;;;;;1835977;76;26269;-51
2022/03/23 12:06:47;;;;;;;9.60;1.85;;;;;;;;;;1857228;76;26292;-49
2022/03/23 12:09:35;;;;;;;8.10;1.50;;;;;;;;;;1874297;76;26334;-47
2022/03/23 12:12:12;;;;;;;10.70;2.02;;;;;;;;;;1865029;76;26715;-51
2022/03/23 12:14:42;;;;;;;6.87;1.80;;;;;;;;;;1858420;76;26704;-49
2022/03/23 12:17:14;;;;;;;7.95;2.00;;;;;;;;;;1856980;76;26329;-48
2022/03/23 12:19:58;;;;;;;4.28;1.82;;;;;;;;;;1858416;76;26275;-50
2022/03/23 12:22:35;;;;;;;4.12;1.60;;;;;;;;;;1859969;76;27256;-48
2022/03/23 12:25:21;;;;;;;9.90;2.05;;;;;;;;;;1848975;76;26740;-49
2022/03/23 12:27:59;;;;;;;6.25;1.82;;;;;;;;;;1852210;76;26974;-49
2022/03/23 12:30:27;;;;;;;2.45;1.65;;;;;;;;;;1855744;76;26323;-47
2022/03/23 12:32:56;;;;;;;1.95;1.40;;;;;;;;;;1857558;76;26264;-47
2022/03/23 12:35:30;;;;;;;4.30;1.47;;;;;;;;;;1858962;76;26701;-47
2022/03/23 12:38:03;;;;;;;2.35;1.50;;;;;;;;;;1861411;76;26797;-50
2022/03/23 12:40:41;;;;;;;4.28;1.60;;;;;;;;;;1859015;76;26268;-47
2022/03/23 12:43:09;;;;;;;3.47;1.65;;;;;;;;;;1855276;76;26722;-47
2022/03/23 12:45:40;;;;;;;1.92;1.62;;;;;;;;;;1859836;76;26334;-49
2022/03/23 12:59:23;;;;;;;2.98;1.45;;;;;;;;;;1845836;76;26284;-47
2022/03/23 13:01:55;;;;;;;3.37;1.25;;;;;;;;;;1847600;76;26281;-48
2022/03/23 13:04:42;;;;;;;2.20;1.35;;;;;;;;;;1839614;76;26914;-49
2022/03/23 13:07:27;;;;;;;2.60;1.20;;;;;;;;;;1845916;77;26206;-48
2022/03/23 13:09:56;;;;;;;1.50;1.40;;;;;;;;;;1844491;76;26253;-49
2022/03/23 13:12:30;;;;;;;2.35;1.50;;;;;;;;;;1824140;76;26257;-47
2022/03/23 13:14:59;;;;;;;1.92;1.35;;;;;;;;;;1848835;77;26253;-49
2022/03/23 13:17:27;;;;;;;2.60;1.47;;;;;;;;;;1844327;77;26278;-49
2022/03/23 13:19:58;;;;;;;2.05;1.50;;;;;;;;;;1849008;76;26458;-49
2022/03/23 13:22:35;;;;;;;2.20;1.30;;;;;;;;;;1849298;77;26326;-49
2022/03/23 13:25:10;;;;;;;1.87;1.42;;;;;;;;;;1853378;76;26373;-48
2022/03/23 13:27:38;;;;;;;1.67;1.37;;;;;;;;;;1840123;76;26245;-46
2022/03/23 13:30:07;;;;;;;1.55;1.40;;;;;;;;;;1851151;76;26822;-48
2022/03/23 13:32:39;;;;;;;3.05;1.30;;;;;;;;;;1850679;76;26254;-46
2022/03/23 13:35:06;;;;;;;1.20;1.20;;;;;;;;;;1853720;76;26324;-47
2022/03/23 13:37:35;;;;;;;1.80;1.40;;;;;;;;;;1856833;76;26345;-49
2022/03/23 13:40:04;;;;;;;3.85;1.40;;;;;;;;;;1845747;77;26337;-47
2022/03/23 13:45:16;;;;;;;2.55;1.30;;;;;;;;;;1861982;75;26354;-46
2022/03/23 13:47:44;;;;;;;3.33;1.50;;;;;;;;;;1865470;75;26345;-47
2022/03/23 13:50:12;;;;;;;1.90;1.40;;;;;;;;;;1870068;75;26325;-45
2022/03/23 13:52:41;;;;;;;1.42;1.30;;;;;;;;;;1873325;75;26841;-45
2022/03/23 13:55:14;;;;;;;1.70;1.40;;;;;;;;;;1871728;75;26616;-50
2022/03/23 13:57:38;;;;;;;2.50;1.47;;;;;;;;;;1863974;75;26344;-48
2022/03/23 14:00:07;;;;;;;1.50;1.40;;;;;;;;;;1863554;75;26824;-47
2022/03/23 14:02:35;;;;;;;1.37;1.30;;;;;;;;;;1858518;75;26276;-48
2022/03/23 14:05:03;;;;;;;2.98;1.52;;;;;;;;;;1866613;75;26740;-49
2022/03/23 14:07:31;;;;;;;1.40;1.30;;;;;;;;;;1864536;75;26333;-47
2022/03/23 14:10:00;;;;;;;1.47;1.37;;;;;;;;;;1866961;75;26928;-47
2022/03/23 14:12:27;;;;;;;2.80;1.67;;;;;;;;;;1870212;75;26374;-54
2022/03/23 14:14:56;;;;;;;15.10;2.40;;;;;;;;;;1868626;75;26259;-47
2022/03/23 14:17:28;;;;;;;7.50;4.00;;;;;;;;;;1871001;75;26307;-48
2022/03/23 14:20:03;;;;;;;6.70;3.45;;;;;;;;;;1860077;75;26746;-48
2022/03/23 14:22:29;;;;;;;7.37;3.85;;;;;;;;;;1863223;75;26398;-50
2022/03/23 14:25:01;;;;;;;8.93;4.03;;;;;;;;;;1870627;75;26217;-48
2022/03/23 14:27:32;;;;;;;15.63;4.75;;;;;;;;;;1877157;75;26814;-50
2022/03/23 14:30:06;;;;;;;9.33;4.67;;;;;;;;;;1874654;75;26327;-49
2022/03/23 14:32:36;;;;;;;9.53;5.05;;;;;;;;;;1867110;75;26266;-50
2022/03/23 14:35:04;;;;;;;12.10;5.03;;;;;;;;;;1869024;75;26259;-47
2022/03/23 14:37:39;;;;;;;11.30;4.83;;;;;;;;;;1873699;75;26778;-53
2022/03/23 14:40:10;;;;;;;11.65;5.20;;;;;;;;;;1873928;75;26272;-47
2022/03/23 14:42:38;;;;;;;12.03;5.50;;;;;;;;;;1808964;75;26302;-46
2022/03/23 14:45:06;;;;;;;14.33;5.65;;;;;;;;;;1878155;75;26317;-48
2022/03/23 14:47:46;;;;;;;17.42;6.47;;;;;;;;;;1868299;75;26297;-50
2022/03/23 14:50:14;;;;;;;14.95;6.50;;;;;;;;;;1860631;75;26243;-54
2022/03/23 14:52:41;;;;;;;18.05;6.95;;;;;;;;;;1873141;75;26267;-54
2022/03/23 14:55:08;;;;;;;15.05;6.70;;;;;;;;;;1856361;75;26291;-47
2022/03/23 14:57:36;;;;;;;13.78;6.90;;;;;;;;;;1863375;75;26768;-48
2022/03/23 15:00:05;;;;;;;18.05;7.90;;;;;;;;;;1868921;75;26686;-50
2022/03/23 15:02:32;;;;;;;22.22;7.97;;;;;;;;;;1860990;76;26302;-48
2022/03/23 15:04:59;;;;;;;24.85;8.23;;;;;;;;;;1857560;75;26385;-49
2022/03/23 15:15:44;;;;;;;17.77;7.15;;;;;;;;;;1860991;75;26762;-49
2022/03/23 15:18:12;;;;;;;28.00;8.60;;;;;;;;;;1867928;75;26762;-54
2022/03/23 15:20:40;;;;;;;27.65;8.30;;;;;;;;;;1862614;75;26269;-43
2022/03/23 15:23:10;;;;;;;31.25;8.00;;;;;;;;;;1872147;75;26637;-54
2022/03/23 15:25:38;;;;;;;24.45;8.28;;;;;;;;;;1868262;75;26307;-51
2022/03/23 15:28:06;;;;;;;22.58;8.75;;;;;;;;;;1866640;75;26287;-52
2022/03/23 15:30:34;;;;;;;26.85;8.95;;;;;;;;;;1871866;75;26208;-51
2022/03/23 15:33:01;;;;;;;29.23;8.93;;;;;;;;;;1865522;76;26888;-53
2022/03/23 15:35:29;;;;;;;26.82;8.48;;;;;;;;;;1872823;75;26288;-51
2022/03/23 15:37:56;;;;;;;29.63;7.75;;;;;;;;;;1872090;75;26609;-50
2022/03/23 15:40:24;;;;;;;21.87;7.35;;;;;;;;;;1867568;75;26330;-51